createdAt,value
2023-05-12T00:02:16.102Z,2.60
2023-05-12T00:04:43.565Z,2.60
2023-05-12T00:07:10.951Z,2.70
2023-05-12T00:09:41.381Z,2.60
2023-05-12T00:12:09.383Z,2.60
2023-05-12T00:14:36.925Z,2.63
2023-05-12T00:17:04.652Z,2.67
2023-05-12T00:19:32.150Z,2.70
2023-05-12T00:21:59.532Z,5.53
2023-05-12T00:24:27.095Z,2.73
2023-05-12T00:26:55.839Z,2.70
2023-05-12T00:29:23.192Z,2.50
2023-05-12T00:31:50.614Z,2.87
2023-05-12T00:34:18.027Z,2.70
2023-05-12T00:36:45.386Z,2.90
2023-05-12T00:39:12.829Z,2.70
2023-05-12T00:41:40.218Z,2.83
2023-05-12T00:44:08.941Z,2.80
2023-05-12T00:46:36.768Z,2.80
2023-05-12T00:49:04.237Z,2.87
2023-05-12T00:51:31.638Z,2.80
2023-05-12T00:53:59.251Z,2.90
2023-05-12T00:56:26.712Z,3.00
2023-05-12T00:58:54.132Z,3.10
2023-05-12T01:01:23.513Z,2.90
2023-05-12T01:03:54.023Z,2.70
2023-05-12T01:06:25.734Z,3.87
2023-05-12T01:08:53.395Z,3.50
2023-05-12T01:11:21.690Z,3.27
2023-05-12T01:13:49.138Z,2.57
2023-05-12T01:16:18.240Z,3.73
2023-05-12T01:18:49.825Z,3.03
2023-05-12T01:21:17.757Z,3.20
2023-05-12T01:23:47.539Z,3.37
2023-05-12T01:26:16.627Z,3.77
2023-05-12T01:28:45.530Z,2.60
2023-05-12T01:31:13.382Z,3.63
2023-05-12T01:33:40.800Z,3.20
2023-05-12T01:36:08.601Z,3.20
2023-05-12T01:38:36.198Z,3.17
2023-05-12T01:41:03.594Z,3.80
2023-05-12T01:43:33.192Z,3.97
2023-05-12T01:46:00.911Z,4.07
2023-05-12T01:48:30.370Z,4.40
2023-05-12T01:51:00.495Z,4.70
2023-05-12T01:53:28.202Z,4.07
2023-05-12T01:55:55.598Z,3.70
2023-05-12T01:58:24.150Z,3.33
2023-05-12T02:00:52.932Z,8.53
2023-05-12T02:03:20.483Z,3.73
2023-05-12T02:05:48.333Z,4.07
2023-05-12T02:08:15.717Z,3.73
2023-05-12T02:10:43.156Z,3.97
2023-05-12T02:13:10.673Z,3.80
2023-05-12T02:15:38.250Z,4.07
2023-05-12T02:18:07.783Z,3.90
2023-05-12T02:20:35.272Z,3.80
2023-05-12T02:23:03.162Z,3.50
2023-05-12T02:25:34.046Z,5.97
2023-05-12T02:28:01.594Z,4.03
2023-05-12T02:30:29.224Z,4.10
2023-05-12T02:32:56.774Z,4.00
2023-05-12T02:35:25.569Z,4.80
2023-05-12T02:37:53.528Z,4.70
2023-05-12T02:40:21.168Z,4.23
2023-05-12T02:42:48.808Z,3.80
2023-05-12T02:45:16.378Z,3.80
2023-05-12T02:47:43.840Z,3.87
2023-05-12T02:50:11.607Z,4.17
2023-05-12T02:52:40.402Z,4.83
2023-05-12T02:55:08.751Z,4.50
2023-05-12T02:57:36.182Z,4.13
2023-05-12T03:00:05.691Z,4.07
2023-05-12T03:02:35.975Z,3.80
2023-05-12T03:05:03.499Z,4.17
2023-05-12T03:07:31.017Z,3.63
2023-05-12T03:10:00.050Z,4.00
2023-05-12T03:12:29.229Z,4.00
2023-05-12T03:14:56.690Z,4.10
2023-05-12T03:17:24.107Z,4.30
2023-05-12T03:19:51.493Z,4.50
2023-05-12T03:22:19.068Z,4.60
2023-05-12T03:24:46.529Z,6.87
2023-05-12T03:27:15.297Z,4.67
2023-05-12T03:29:42.689Z,4.40
2023-05-12T03:32:10.141Z,4.30
2023-05-12T03:34:37.677Z,4.40
2023-05-12T03:37:05.302Z,4.03
2023-05-12T03:39:32.706Z,4.20
2023-05-12T03:42:00.227Z,4.03
2023-05-12T03:44:29.274Z,4.53
2023-05-12T03:46:57.769Z,5.13
2023-05-12T03:49:25.889Z,5.83
2023-05-12T03:51:53.303Z,5.43
2023-05-12T03:54:20.706Z,5.00
2023-05-12T03:56:48.151Z,5.77
2023-05-12T03:59:16.174Z,5.90
2023-05-12T04:01:45.272Z,6.30
2023-05-12T04:04:12.796Z,6.37
2023-05-12T04:06:40.345Z,9.77
2023-05-12T04:09:07.796Z,7.57
2023-05-12T04:11:37.171Z,6.70
2023-05-12T04:14:04.593Z,6.67
2023-05-12T04:16:32.008Z,7.53
2023-05-12T04:19:00.855Z,6.90
2023-05-12T04:21:29.309Z,7.83
2023-05-12T04:23:56.769Z,8.03
2023-05-12T04:26:27.158Z,8.40
2023-05-12T04:28:55.125Z,7.90
2023-05-12T04:31:23.143Z,7.30
2023-05-12T04:33:51.821Z,7.03
2023-05-12T04:36:20.579Z,6.77
2023-05-12T04:38:48.045Z,7.33
2023-05-12T04:41:15.611Z,7.43
2023-05-12T04:46:14.134Z,8.60
2023-05-12T04:48:43.138Z,7.40
2023-05-12T04:51:10.582Z,8.10
2023-05-12T04:53:39.286Z,8.40
2023-05-12T04:56:07.126Z,8.27
2023-05-12T04:58:38.502Z,7.93
2023-05-12T05:01:07.191Z,8.30
2023-05-12T05:03:34.964Z,8.50
2023-05-12T05:06:02.629Z,8.60
2023-05-12T05:08:30.424Z,9.40
2023-05-12T05:10:59.109Z,9.03
2023-05-12T05:13:28.135Z,9.20
2023-05-12T05:15:55.646Z,8.17
2023-05-12T05:18:25.047Z,7.40
2023-05-12T05:20:58.639Z,6.87
2023-05-12T05:23:26.739Z,7.03
2023-05-12T05:25:54.660Z,7.70
2023-05-12T05:28:23.432Z,7.50
2023-05-12T05:30:50.817Z,7.83
2023-05-12T05:33:18.218Z,7.50
2023-05-12T05:35:47.942Z,7.07
2023-05-12T05:38:15.680Z,7.30
2023-05-12T05:40:53.025Z,7.50
2023-05-12T05:43:20.888Z,7.20
2023-05-12T05:45:50.358Z,7.47
2023-05-12T05:48:18.269Z,6.50
2023-05-12T05:50:47.202Z,7.20
2023-05-12T05:53:15.186Z,7.67
2023-05-12T05:55:43.588Z,7.30
2023-05-12T05:58:10.976Z,7.37
2023-05-12T06:00:38.587Z,7.43
2023-05-12T06:03:08.033Z,7.13
2023-05-12T06:05:35.566Z,7.03
2023-05-12T06:08:02.961Z,6.77
2023-05-12T06:10:30.363Z,6.40
2023-05-12T06:12:57.789Z,6.30
2023-05-12T06:15:25.189Z,6.47
2023-05-12T06:17:52.714Z,6.80
2023-05-12T06:20:23.177Z,6.10
2023-05-12T06:22:50.649Z,6.40
2023-05-12T06:25:18.637Z,6.43
2023-05-12T06:27:46.228Z,6.13
2023-05-12T06:30:15.944Z,6.63
2023-05-12T06:32:43.785Z,6.33
2023-05-12T06:35:11.603Z,7.10
2023-05-12T06:37:40.393Z,6.50
2023-05-12T06:40:09.484Z,6.93
2023-05-12T06:42:36.892Z,6.83
2023-05-12T06:45:10.855Z,6.87
2023-05-12T06:47:38.294Z,6.83
2023-05-12T06:50:06.117Z,6.77
2023-05-12T06:52:33.529Z,6.00
2023-05-12T06:55:02.813Z,6.17
2023-05-12T06:57:30.938Z,5.93
2023-05-12T06:59:58.303Z,6.10
2023-05-12T07:02:25.685Z,6.43
2023-05-12T07:04:53.146Z,6.37
2023-05-12T07:07:20.522Z,5.97
2023-05-12T07:09:47.896Z,6.03
2023-05-12T07:12:16.612Z,6.10
2023-05-12T07:14:44.014Z,6.10
2023-05-12T07:17:11.409Z,7.60
2023-05-12T07:19:40.094Z,5.30
2023-05-12T07:22:07.575Z,6.00
2023-05-12T07:24:35.059Z,5.67
2023-05-12T07:27:02.572Z,6.00
2023-05-12T07:29:31.330Z,5.70
2023-05-12T07:31:58.707Z,5.87
2023-05-12T07:34:26.119Z,5.30
2023-05-12T07:36:53.472Z,5.80
2023-05-12T07:39:23.582Z,5.33
2023-05-12T07:41:51.111Z,4.80
2023-05-12T07:44:18.578Z,5.37
2023-05-12T07:46:47.498Z,5.23
2023-05-12T07:49:14.902Z,5.23
2023-05-12T07:51:42.339Z,5.50
2023-05-12T07:54:09.775Z,4.90
2023-05-12T07:56:37.171Z,5.40
2023-05-12T07:59:04.597Z,4.30
2023-05-12T08:01:31.966Z,3.93
2023-05-12T08:04:00.887Z,3.17
2023-05-12T08:06:28.364Z,3.67
2023-05-12T08:08:57.847Z,3.83
2023-05-12T08:11:25.990Z,4.23
2023-05-12T08:13:53.490Z,4.03
2023-05-12T08:16:20.921Z,3.90
2023-05-12T08:18:48.524Z,3.90
2023-05-12T08:21:17.365Z,4.10
2023-05-12T08:23:44.720Z,4.73
2023-05-12T08:26:12.082Z,4.50
2023-05-12T08:28:39.518Z,3.40
2023-05-12T08:31:06.965Z,3.90
2023-05-12T08:33:34.953Z,4.00
2023-05-12T08:36:02.734Z,3.10
2023-05-12T08:38:32.632Z,2.87
2023-05-12T08:41:08.117Z,2.90
2023-05-12T08:43:38.852Z,3.10
2023-05-12T08:46:06.296Z,4.23
2023-05-12T08:48:34.900Z,3.50
2023-05-12T08:51:03.582Z,2.83
2023-05-12T08:53:34.335Z,2.87
2023-05-12T08:58:40.971Z,3.50
2023-05-12T09:01:09.304Z,3.10
2023-05-12T09:03:36.831Z,3.27
2023-05-12T09:06:06.553Z,3.70
2023-05-12T09:08:35.702Z,4.27
2023-05-12T09:11:03.415Z,4.10
2023-05-12T09:13:33.627Z,4.37
2023-05-12T09:16:01.942Z,4.90
2023-05-12T09:18:33.173Z,4.73
2023-05-12T09:21:01.867Z,4.33
2023-05-12T09:23:29.309Z,5.00
2023-05-12T09:26:02.245Z,5.47
2023-05-12T09:28:35.543Z,4.93
2023-05-12T09:31:03.643Z,4.73
2023-05-12T09:33:36.042Z,4.53
2023-05-12T09:36:03.434Z,4.53
2023-05-12T09:38:31.198Z,4.80
2023-05-12T09:40:58.818Z,4.40
2023-05-12T09:43:27.514Z,4.40
2023-05-12T09:45:55.614Z,4.30
2023-05-12T09:48:24.030Z,3.77
2023-05-12T09:50:53.044Z,3.73
2023-05-12T09:53:22.787Z,4.60
2023-05-12T09:55:50.284Z,2.97
2023-05-12T09:58:18.217Z,2.33
2023-05-12T10:03:18.502Z,2.50
2023-05-12T10:05:48.953Z,2.73
2023-05-12T10:08:18.542Z,2.40
2023-05-12T10:10:48.425Z,2.40
2023-05-12T10:13:15.874Z,2.40
2023-05-12T10:15:43.870Z,2.20
2023-05-12T10:18:13.288Z,2.10
2023-05-12T10:20:41.635Z,2.17
2023-05-12T10:23:09.966Z,2.10
2023-05-12T10:25:37.479Z,2.53
2023-05-12T10:28:05.266Z,2.30
2023-05-12T10:30:32.722Z,2.20
2023-05-12T10:33:01.705Z,2.07
2023-05-12T10:35:34.559Z,1.73
2023-05-12T10:38:02.283Z,1.80
2023-05-12T10:40:29.962Z,1.60
2023-05-12T10:42:59.161Z,2.07
2023-05-12T10:45:26.793Z,1.50
2023-05-12T10:47:54.308Z,1.53
2023-05-12T10:50:27.924Z,1.50
2023-05-12T10:52:56.829Z,3.30
2023-05-12T10:55:31.821Z,1.70
2023-05-12T10:58:05.341Z,2.17
2023-05-12T11:00:33.775Z,2.00
2023-05-12T11:03:09.959Z,1.90
2023-05-12T11:05:40.402Z,1.73
2023-05-12T11:08:09.596Z,1.90
2023-05-12T11:10:37.247Z,1.87
2023-05-12T11:13:04.799Z,2.07
2023-05-12T11:15:32.317Z,1.67
2023-05-12T11:18:02.860Z,1.90
2023-05-12T11:20:31.117Z,1.97
2023-05-12T11:22:58.694Z,1.90
2023-05-12T11:25:29.028Z,2.20
2023-05-12T11:27:56.563Z,2.30
2023-05-12T11:30:23.922Z,1.87
2023-05-12T11:33:00.625Z,2.30
2023-05-12T11:35:31.303Z,1.77
2023-05-12T11:37:58.677Z,1.93
2023-05-12T11:40:26.061Z,2.00
2023-05-12T11:42:56.094Z,1.90
2023-05-12T11:45:24.651Z,1.90
2023-05-12T11:47:52.184Z,1.77
2023-05-12T11:50:23.628Z,1.97
2023-05-12T11:52:51.284Z,1.87
2023-05-12T11:55:23.236Z,1.60
2023-05-12T11:57:59.498Z,1.90
2023-05-12T12:00:31.174Z,2.30
2023-05-12T12:03:08.606Z,2.00
2023-05-12T12:05:36.547Z,1.97
2023-05-12T12:08:08.080Z,1.80
2023-05-12T12:10:35.809Z,1.70
2023-05-12T12:13:04.654Z,1.60
2023-05-12T12:15:32.464Z,1.90
2023-05-12T12:17:59.927Z,1.83
2023-05-12T12:20:27.340Z,1.70
2023-05-12T12:22:54.854Z,1.60
2023-05-12T12:25:22.892Z,1.90
2023-05-12T12:27:50.926Z,4.93
2023-05-12T12:30:19.947Z,1.60
2023-05-12T12:32:47.584Z,1.93
2023-05-12T12:35:15.072Z,1.50
2023-05-12T12:37:42.545Z,1.67
2023-05-12T12:40:11.394Z,1.87
2023-05-12T12:42:40.436Z,2.37
2023-05-12T12:45:09.831Z,1.50
2023-05-12T12:47:39.136Z,2.00
2023-05-12T12:50:07.273Z,1.60
2023-05-12T12:52:34.680Z,1.20
2023-05-12T12:55:02.217Z,1.27
2023-05-12T12:57:30.114Z,1.00
2023-05-12T12:59:57.546Z,1.67
2023-05-12T13:02:25.066Z,1.17
2023-05-12T13:04:53.814Z,0.90
2023-05-12T13:07:21.766Z,1.10
2023-05-12T13:09:49.205Z,1.20
2023-05-12T13:12:16.676Z,0.93
2023-05-12T13:14:44.050Z,0.93
2023-05-12T13:17:11.482Z,1.23
2023-05-12T13:19:38.867Z,1.10
2023-05-12T13:22:07.573Z,1.30
2023-05-12T13:24:35.126Z,1.20
2023-05-12T13:27:02.519Z,1.40
2023-05-12T13:29:29.875Z,1.40
2023-05-12T13:31:57.260Z,1.30
2023-05-12T13:34:24.683Z,1.20
2023-05-12T13:36:52.145Z,1.10
2023-05-12T13:39:21.212Z,1.10
2023-05-12T13:41:48.672Z,2.63
2023-05-12T13:44:16.066Z,1.07
2023-05-12T13:46:43.510Z,1.60
2023-05-12T13:49:11.004Z,1.00
2023-05-12T13:51:38.394Z,1.50
2023-05-12T13:54:05.812Z,0.70
2023-05-12T13:56:34.567Z,0.77
2023-05-12T13:59:01.986Z,0.60
2023-05-12T14:01:29.406Z,0.77
2023-05-12T14:03:56.814Z,0.80
2023-05-12T14:06:24.238Z,0.80
2023-05-12T14:08:51.665Z,0.83
2023-05-12T14:11:19.156Z,0.83
2023-05-12T14:13:47.898Z,0.90
2023-05-12T14:16:15.458Z,0.70
2023-05-12T14:18:43.830Z,0.80
2023-05-12T14:21:11.626Z,0.90
2023-05-12T14:23:39.077Z,1.05
2023-05-12T14:26:06.578Z,2.65
2023-05-12T14:28:34.127Z,1.10
2023-05-12T14:31:03.705Z,1.00
2023-05-12T14:33:31.370Z,0.80
2023-05-12T14:36:06.379Z,1.00
2023-05-12T14:38:35.682Z,1.20
2023-05-12T14:41:03.120Z,1.10
2023-05-12T14:43:30.625Z,1.20
2023-05-12T14:45:58.069Z,0.80
2023-05-12T14:48:27.073Z,1.10
2023-05-12T14:50:54.887Z,1.10
2023-05-12T14:53:22.416Z,0.97
2023-05-12T14:55:50.008Z,1.20
2023-05-12T14:58:17.997Z,1.17
2023-05-12T15:00:47.174Z,1.20
2023-05-12T15:03:15.003Z,1.10
2023-05-12T15:08:14.146Z,1.13
2023-05-12T15:10:41.532Z,1.00
2023-05-12T15:13:08.927Z,1.00
2023-05-12T15:15:39.038Z,1.03
2023-05-12T15:18:06.821Z,0.90
2023-05-12T15:20:34.232Z,0.90
2023-05-12T15:23:02.956Z,0.80
2023-05-12T15:25:30.340Z,0.60
2023-05-12T15:27:57.837Z,0.70
2023-05-12T15:30:25.317Z,0.60
2023-05-12T15:32:52.782Z,0.80
2023-05-12T15:35:20.417Z,0.60
2023-05-12T15:37:47.976Z,0.60
2023-05-12T15:40:17.148Z,0.63
2023-05-12T15:42:44.557Z,0.63
2023-05-12T15:45:12.063Z,0.77
2023-05-12T15:47:39.548Z,0.80
2023-05-12T15:50:07.658Z,0.90
2023-05-12T15:52:35.053Z,1.20
2023-05-12T15:55:02.702Z,0.67
2023-05-12T15:57:31.400Z,0.47
2023-05-12T15:59:59.499Z,0.40
2023-05-12T16:02:27.052Z,0.50
2023-05-12T16:04:54.494Z,0.87
2023-05-12T16:07:21.866Z,0.40
2023-05-12T16:09:49.246Z,1.07
2023-05-12T16:12:17.615Z,0.70
2023-05-12T16:14:46.396Z,0.63
2023-05-12T16:17:13.841Z,0.70
2023-05-12T16:19:41.235Z,0.70
2023-05-12T16:22:08.705Z,0.60
2023-05-12T16:24:36.181Z,0.60
2023-05-12T16:27:04.425Z,0.60
2023-05-12T16:29:31.917Z,0.87
2023-05-12T16:32:00.871Z,1.40
2023-05-12T16:34:28.375Z,0.70
2023-05-12T16:36:55.731Z,0.70
2023-05-12T16:39:23.092Z,0.50
2023-05-12T16:41:50.432Z,0.83
2023-05-12T16:44:17.828Z,0.70
2023-05-12T16:46:45.280Z,0.50
2023-05-12T16:49:14.062Z,0.60
2023-05-12T16:51:41.860Z,0.60
2023-05-12T16:54:09.470Z,0.60
2023-05-12T16:56:36.871Z,0.67
2023-05-12T16:59:04.293Z,0.80
2023-05-12T17:01:31.790Z,0.67
2023-05-12T17:03:59.470Z,0.50
2023-05-12T17:06:28.315Z,0.93
2023-05-12T17:08:55.711Z,0.60
2023-05-12T17:11:24.500Z,0.57
2023-05-12T17:13:53.625Z,0.60
2023-05-12T17:16:21.130Z,0.80
2023-05-12T17:21:18.878Z,0.70
2023-05-12T17:23:48.186Z,0.80
2023-05-12T17:26:15.657Z,0.83
2023-05-12T17:28:43.082Z,0.97
2023-05-12T17:31:10.730Z,0.83
2023-05-12T17:33:38.236Z,0.70
2023-05-12T17:36:12.384Z,1.00
2023-05-12T17:38:40.743Z,0.80
2023-05-12T17:41:09.823Z,0.70
2023-05-12T17:43:37.278Z,0.70
2023-05-12T17:46:07.570Z,0.90
2023-05-12T17:48:34.971Z,2.10
2023-05-12T17:51:03.329Z,0.90
2023-05-12T17:53:31.369Z,0.97
2023-05-12T17:55:58.859Z,0.80
2023-05-12T17:58:27.672Z,1.00
2023-05-12T18:00:55.046Z,1.10
2023-05-12T18:03:23.826Z,1.10
2023-05-12T18:05:52.022Z,1.20
2023-05-12T18:08:19.727Z,0.90
2023-05-12T18:10:47.251Z,1.17
2023-05-12T18:13:15.921Z,1.07
2023-05-12T18:15:44.709Z,1.50
2023-05-12T18:18:14.261Z,1.10
2023-05-12T18:20:42.208Z,1.17
2023-05-12T18:23:09.685Z,1.30
2023-05-12T18:25:37.182Z,1.50
2023-05-12T18:28:06.364Z,1.60
2023-05-12T18:30:33.817Z,1.40
2023-05-12T18:33:02.613Z,1.50
2023-05-12T18:35:30.191Z,1.40
2023-05-12T18:37:57.582Z,2.60
2023-05-12T18:40:24.986Z,1.60
2023-05-12T18:42:52.365Z,1.30
2023-05-12T18:45:19.955Z,1.80
2023-05-12T18:47:47.686Z,1.50
2023-05-12T18:50:16.599Z,1.60
2023-05-12T18:52:43.962Z,1.90
2023-05-12T18:55:11.817Z,3.60
2023-05-12T18:57:39.506Z,1.50
2023-05-12T19:00:07.502Z,1.70
2023-05-12T19:02:35.345Z,1.57
2023-05-12T19:05:03.473Z,2.77
2023-05-12T19:07:32.230Z,2.07
2023-05-12T19:09:59.615Z,1.60
2023-05-12T19:12:27.009Z,1.60
2023-05-12T19:14:54.400Z,1.80
2023-05-12T19:17:21.993Z,1.80
2023-05-12T19:19:50.494Z,1.80
2023-05-12T19:22:17.891Z,1.60
2023-05-12T19:24:47.222Z,1.50
2023-05-12T19:27:15.104Z,1.73
2023-05-12T19:29:42.506Z,1.90
2023-05-12T19:32:10.026Z,3.10
2023-05-12T19:34:37.567Z,1.80
2023-05-12T19:37:05.100Z,1.90
2023-05-12T19:39:32.491Z,1.70
2023-05-12T19:42:01.506Z,2.00
2023-05-12T19:44:30.073Z,2.00
2023-05-12T19:46:58.842Z,1.70
2023-05-12T19:49:26.546Z,2.33
2023-05-12T19:51:53.934Z,1.97
2023-05-12T19:54:21.318Z,1.90
2023-05-12T19:56:48.705Z,1.80
2023-05-12T19:59:18.510Z,2.23
2023-05-12T20:01:46.129Z,2.00
2023-05-12T20:04:13.653Z,2.30
2023-05-12T20:06:42.173Z,3.07
2023-05-12T20:09:09.549Z,1.97
2023-05-12T20:11:36.950Z,1.93
2023-05-12T20:14:04.295Z,2.40
2023-05-12T20:16:33.013Z,2.27
2023-05-12T20:19:02.608Z,2.53
2023-05-12T20:21:31.173Z,2.50
2023-05-12T20:23:58.608Z,2.40
2023-05-12T20:26:26.134Z,2.47
2023-05-12T20:28:53.531Z,2.43
2023-05-12T20:31:21.006Z,2.60
2023-05-12T20:33:49.803Z,2.67
2023-05-12T20:36:17.213Z,2.57
2023-05-12T20:38:44.581Z,2.63
2023-05-12T20:41:12.807Z,2.73
2023-05-12T20:43:41.259Z,3.20
2023-05-12T20:46:08.722Z,3.00
2023-05-12T20:48:36.374Z,2.87
2023-05-12T20:51:12.400Z,3.17
2023-05-12T20:53:39.934Z,3.27
2023-05-12T20:56:08.595Z,3.10
2023-05-12T20:58:36.370Z,3.40
2023-05-12T21:01:04.084Z,2.93
2023-05-12T21:03:31.678Z,3.60
2023-05-12T21:05:59.145Z,2.90
2023-05-12T21:08:27.906Z,3.40
2023-05-12T21:10:55.589Z,3.43
2023-05-12T21:13:23.050Z,3.67
2023-05-12T21:15:50.454Z,3.80
2023-05-12T21:18:17.800Z,3.30
2023-05-12T21:20:45.160Z,3.60
2023-05-12T21:23:13.580Z,3.57
2023-05-12T21:25:42.324Z,3.63
2023-05-12T21:28:09.712Z,3.47
2023-05-12T21:30:37.305Z,4.47
2023-05-12T21:33:04.880Z,4.17
2023-05-12T21:35:32.241Z,4.60
2023-05-12T21:37:59.601Z,3.73
2023-05-12T21:40:26.997Z,3.87
2023-05-12T21:42:55.731Z,4.17
2023-05-12T21:45:23.067Z,4.23
2023-05-12T21:47:51.317Z,4.30
2023-05-12T21:50:21.505Z,4.13
2023-05-12T21:52:49.469Z,3.90
2023-05-12T21:55:17.141Z,3.50
2023-05-12T21:57:44.600Z,3.90
2023-05-12T22:00:14.833Z,3.97
2023-05-12T22:02:42.951Z,4.33
2023-05-12T22:05:10.606Z,4.10
2023-05-12T22:07:38.008Z,3.93
2023-05-12T22:10:05.678Z,3.83
2023-05-12T22:12:33.044Z,4.20
2023-05-12T22:15:00.542Z,3.80
2023-05-12T22:17:29.459Z,3.30
2023-05-12T22:19:56.913Z,4.10
2023-05-12T22:22:24.321Z,4.83
2023-05-12T22:24:51.948Z,4.10
2023-05-12T22:27:22.348Z,4.00
2023-05-12T22:29:50.001Z,4.13
2023-05-12T22:32:17.419Z,4.23
2023-05-12T22:34:46.141Z,4.00
2023-05-12T22:37:13.518Z,4.00
2023-05-12T22:39:41.087Z,3.80
2023-05-12T22:42:08.626Z,4.97
2023-05-12T22:44:36.052Z,4.03
2023-05-12T22:47:03.476Z,4.00
2023-05-12T22:49:30.829Z,3.93
2023-05-12T22:52:00.043Z,4.13
2023-05-12T22:54:27.433Z,3.57
2023-05-12T22:56:54.837Z,3.70
2023-05-12T22:59:22.226Z,4.53
2023-05-12T23:01:49.705Z,3.60
2023-05-12T23:04:17.223Z,3.60
2023-05-12T23:06:44.713Z,4.07
2023-05-12T23:09:13.418Z,4.30
2023-05-12T23:11:40.805Z,3.90
2023-05-12T23:14:08.743Z,3.93
2023-05-12T23:16:36.289Z,4.10
2023-05-12T23:19:03.737Z,4.13
2023-05-12T23:21:31.512Z,4.20
2023-05-12T23:23:58.897Z,4.40
2023-05-12T23:26:27.678Z,3.77
2023-05-12T23:28:55.092Z,4.60
2023-05-12T23:31:22.477Z,4.40
2023-05-12T23:33:49.956Z,4.50
2023-05-12T23:36:17.375Z,5.03
2023-05-12T23:38:44.840Z,4.70
2023-05-12T23:41:12.198Z,4.77
2023-05-12T23:43:42.141Z,4.80
2023-05-12T23:46:09.578Z,4.63
2023-05-12T23:48:37.272Z,5.03
2023-05-12T23:51:04.817Z,5.03
2023-05-12T23:53:32.216Z,5.13
2023-05-12T23:55:59.621Z,5.27
2023-05-12T23:58:27.029Z,5.27
